Time;durP1;ratioP1;P1;durP2;ratioP2;P2;SDS_P1;SDS_P2;PMS_P1;PMS_P2;Temp;Humidity;BMP_temperature;BMP_pressure;BME280_temperature;BME280_humidity;BME280_pressure;Samples;Min_cycle;Max_cycle;Signal;HPM_P1;HPM_P2
2022/05/30 00:03:55;;;;;;;4.53;1.52;;;;;;;7.24;100.00;101259.41;10299257;28;20042;-70
2022/05/30 00:08:56;;;;;;;8.55;1.80;;;;;;;7.18;100.00;101257.56;10280480;28;20043;-70
2022/05/30 00:13:56;;;;;;;4.10;1.42;;;;;;;7.10;100.00;101249.63;10297081;28;20055;-70
2022/05/30 00:18:57;;;;;;;6.38;1.63;;;;;;;7.01;100.00;101249.88;10297476;28;20042;-69
2022/05/30 00:23:58;;;;;;;7.18;1.90;;;;;;;6.80;100.00;101233.81;10297502;28;20046;-71
2022/05/30 00:28:58;;;;;;;8.18;2.13;;;;;;;6.74;100.00;101242.91;10280142;28;20042;-71
2022/05/30 00:33:59;;;;;;;7.15;2.08;;;;;;;6.61;100.00;101244.66;10296967;28;20057;-71
2022/05/30 00:38:59;;;;;;;7.32;1.95;;;;;;;6.51;100.00;101249.78;10296775;28;20126;-70
2022/05/30 00:44:00;;;;;;;6.63;2.40;;;;;;;6.40;100.00;101248.56;10296734;28;20038;-69
2022/05/30 00:49:02;;;;;;;9.90;2.53;;;;;;;6.31;100.00;101238.94;10296631;28;20053;-68
2022/05/30 00:54:04;;;;;;;6.35;2.00;;;;;;;6.34;100.00;101245.84;10263461;28;20038;-69
2022/05/30 00:59:05;;;;;;;12.15;2.75;;;;;;;6.30;100.00;101241.88;10262986;28;20474;-70
2022/05/30 01:09:33;;;;;;;8.77;2.90;;;;;;;6.22;100.00;101252.00;10280862;28;20043;-70
2022/05/30 01:14:35;;;;;;;7.90;3.20;;;;;;;6.22;100.00;101262.94;10294954;28;20047;-69
2022/05/30 01:19:45;;;;;;;11.35;4.53;;;;;;;6.27;100.00;101256.81;10278683;28;20076;-70
2022/05/30 01:25:07;;;;;;;16.77;3.65;;;;;;;6.29;100.00;101262.09;10295805;28;20059;-70
2022/05/30 01:30:10;;;;;;;14.57;3.88;;;;;;;6.25;100.00;101248.00;10295401;28;20042;-70
2022/05/30 01:35:10;;;;;;;9.80;3.28;;;;;;;6.40;100.00;101253.19;10277723;28;20039;-69
2022/05/30 01:40:11;;;;;;;13.65;3.53;;;;;;;6.47;100.00;101248.53;10294351;28;20061;-71
2022/05/30 01:45:11;;;;;;;14.65;3.85;;;;;;;6.57;100.00;101246.16;10293663;28;20043;-70
2022/05/30 01:50:12;;;;;;;11.43;4.10;;;;;;;6.67;100.00;101238.31;10294635;28;20038;-70
2022/05/30 01:55:13;;;;;;;10.63;3.88;;;;;;;6.80;100.00;101231.06;10277073;28;20043;-70
2022/05/30 02:00:14;;;;;;;12.63;3.67;;;;;;;6.86;100.00;101230.19;10276919;28;20093;-71
2022/05/30 02:05:14;;;;;;;11.85;3.40;;;;;;;6.92;100.00;101221.09;10292942;28;20045;-70
2022/05/30 02:10:15;;;;;;;13.13;3.50;;;;;;;6.93;100.00;101221.97;10292610;28;20049;-70
2022/05/30 02:15:15;;;;;;;12.98;3.53;;;;;;;6.81;100.00;101216.34;10292927;28;20078;-69
2022/05/30 02:20:16;;;;;;;15.98;4.22;;;;;;;6.77;100.00;101204.16;10293999;28;20042;-68
2022/05/30 02:25:17;;;;;;;16.00;3.80;;;;;;;6.73;100.00;101209.22;10292673;28;20047;-68
2022/05/30 02:30:17;;;;;;;10.35;4.07;;;;;;;6.70;100.00;101206.09;10292471;28;20058;-71
2022/05/30 02:40:37;;;;;;;7.20;3.30;;;;;;;6.69;100.00;101216.19;10293492;28;20123;-69
2022/05/30 02:45:37;;;;;;;14.23;4.25;;;;;;;6.62;100.00;101213.50;10291621;28;20105;-71
2022/05/30 02:50:38;;;;;;;12.98;4.55;;;;;;;6.43;100.00;101200.81;10263067;28;20044;-70
2022/05/30 02:55:38;;;;;;;9.48;3.85;;;;;;;6.42;100.00;101218.25;10239470;28;20502;-71
2022/05/30 03:00:39;;;;;;;13.55;6.15;;;;;;;6.33;100.00;101206.75;10243350;29;20031;-71
2022/05/30 03:05:39;;;;;;;20.65;8.73;;;;;;;6.28;100.00;101211.16;10260335;29;20032;-70
2022/05/30 03:10:40;;;;;;;16.60;7.47;;;;;;;6.21;100.00;101220.25;10260542;29;20046;-70
2022/05/30 03:15:40;;;;;;;16.50;7.20;;;;;;;6.16;100.00;101214.59;10276782;28;20046;-70
2022/05/30 03:20:41;;;;;;;12.57;6.35;;;;;;;6.13;100.00;101209.56;10299040;28;20050;-70
2022/05/30 03:25:41;;;;;;;10.88;5.53;;;;;;;6.09;100.00;101207.47;10300845;28;20050;-71
2022/05/30 03:30:42;;;;;;;13.68;5.68;;;;;;;6.15;100.00;101217.53;10299803;28;20035;-71
2022/05/30 03:35:42;;;;;;;18.05;6.70;;;;;;;6.22;100.00;101207.41;10282332;28;20049;-70
2022/05/30 03:40:43;;;;;;;11.60;4.88;;;;;;;6.28;100.00;101227.59;10281324;28;20034;-70
2022/05/30 03:45:44;;;;;;;13.88;6.22;;;;;;;6.36;100.00;101224.59;10299719;28;20110;-70
2022/05/30 03:50:45;;;;;;;13.50;6.00;;;;;;;6.43;100.00;101222.69;10265141;28;20039;-70
2022/05/30 03:55:45;;;;;;;19.02;5.68;;;;;;;6.10;100.00;101170.88;10298931;28;20049;-70
2022/05/30 04:00:46;;;;;;;12.77;5.72;;;;;;;6.46;100.00;101222.22;10279997;28;20487;-70
2022/05/30 04:05:46;;;;;;;13.52;4.97;;;;;;;6.43;100.00;101222.69;10297049;28;20035;-71
2022/05/30 04:10:47;;;;;;;12.35;4.88;;;;;;;6.52;100.00;101229.56;10298569;28;20094;-70
2022/05/30 04:15:47;;;;;;;9.02;4.05;;;;;;;6.55;100.00;101229.16;10298620;28;20043;-67
2022/05/30 04:20:48;;;;;;;13.77;4.80;;;;;;;6.57;100.00;101218.78;10298045;28;20050;-70
2022/05/30 04:25:48;;;;;;;7.43;3.75;;;;;;;6.64;100.00;101219.59;10280781;28;20039;-70
2022/05/30 04:30:48;;;;;;;8.50;3.35;;;;;;;6.63;100.00;101209.72;10296500;28;20066;-68
2022/05/30 04:35:49;;;;;;;8.77;4.50;;;;;;;6.73;100.00;101213.88;10295885;28;20046;-70
2022/05/30 04:40:50;;;;;;;12.70;3.47;;;;;;;6.82;100.00;101218.00;10297302;28;20047;-70
2022/05/30 04:46:04;;;;;;;9.50;3.78;;;;;;;6.83;100.00;101220.53;10297367;28;20053;-70
2022/05/30 04:51:04;;;;;;;7.00;3.15;;;;;;;7.02;100.00;101223.34;10279617;28;20376;-71
2022/05/30 04:56:05;;;;;;;9.02;3.90;;;;;;;7.16;100.00;101224.09;10296327;28;20039;-70
2022/05/30 05:01:08;;;;;;;10.15;3.85;;;;;;;7.20;100.00;101226.16;10294054;28;20081;-70
2022/05/30 05:06:15;;;;;;;6.47;3.38;;;;;;;7.21;100.00;101232.47;10277690;28;20050;-70
2022/05/30 05:11:21;;;;;;;9.23;3.00;;;;;;;7.29;100.00;101240.41;10276647;28;20050;-70
2022/05/30 05:16:27;;;;;;;8.30;2.90;;;;;;;7.40;100.00;101228.72;10277391;28;20035;-69
2022/05/30 05:21:31;;;;;;;6.50;3.10;;;;;;;7.66;100.00;101237.75;10295356;28;20042;-70
2022/05/30 05:26:32;;;;;;;5.93;2.78;;;;;;;7.89;100.00;101246.13;10262241;28;20067;-70
2022/05/30 05:31:34;;;;;;;7.55;3.00;;;;;;;8.01;100.00;101243.47;10276747;28;20046;-70
2022/05/30 05:36:37;;;;;;;6.53;2.63;;;;;;;8.04;100.00;101226.59;10294732;28;20046;-70
2022/05/30 05:41:40;;;;;;;6.85;2.85;;;;;;;8.21;100.00;101232.28;10295122;28;20046;-70
2022/05/30 05:46:40;;;;;;;6.45;2.65;;;;;;;8.26;100.00;101229.69;10277651;28;20138;-70
2022/05/30 05:51:41;;;;;;;6.75;3.13;;;;;;;8.47;100.00;101238.53;10294421;28;20360;-69
2022/05/30 05:56:41;;;;;;;10.25;2.97;;;;;;;8.67;100.00;101241.84;10294124;28;20037;-71
2022/05/30 06:01:42;;;;;;;8.27;3.03;;;;;;;9.13;100.00;101244.13;10291999;28;20046;-69
2022/05/30 06:06:46;;;;;;;12.25;2.78;;;;;;;9.47;100.00;101237.03;10293574;28;20035;-69
2022/05/30 06:11:46;;;;;;;5.80;2.00;;;;;;;9.81;100.00;101235.31;10276501;28;20045;-70
2022/05/30 06:16:46;;;;;;;8.82;2.28;;;;;;;9.83;100.00;101238.66;10293822;28;20042;-70
2022/05/30 06:21:47;;;;;;;6.53;1.77;;;;;;;10.12;100.00;101236.00;10293582;28;20516;-71
2022/05/30 06:26:48;;;;;;;6.03;1.38;;;;;;;10.45;100.00;101229.00;10291934;28;20035;-70
2022/05/30 06:31:48;;;;;;;3.75;1.00;;;;;;;10.40;100.00;101238.00;10291292;28;20050;-70
2022/05/30 06:36:49;;;;;;;2.97;0.70;;;;;;;10.20;100.00;101238.38;10292384;28;20050;-70
2022/05/30 06:41:49;;;;;;;1.70;0.63;;;;;;;10.20;100.00;101249.38;10292604;28;20035;-71
2022/05/30 06:46:50;;;;;;;1.90;0.70;;;;;;;10.75;100.00;101241.69;10292954;28;20035;-71
2022/05/30 06:51:50;;;;;;;1.95;0.60;;;;;;;11.25;100.00;101236.25;10292801;28;20042;-70
2022/05/30 07:02:10;;;;;;;0.82;0.40;;;;;;;11.49;100.00;101245.19;10292677;28;20102;-70
2022/05/30 07:07:10;;;;;;;1.20;0.40;;;;;;;11.28;100.00;101254.19;10291650;28;20035;-70
2022/05/30 07:12:11;;;;;;;2.45;0.52;;;;;;;11.34;100.00;101242.19;10292117;28;20447;-70
2022/05/30 07:17:11;;;;;;;3.10;0.43;;;;;;;11.43;100.00;101248.97;10282034;28;20046;-70
2022/05/30 07:22:12;;;;;;;0.75;0.47;;;;;;;11.61;100.00;101238.75;10272703;28;20050;-70
2022/05/30 07:27:12;;;;;;;2.60;0.60;;;;;;;11.69;100.00;101246.59;10252028;28;20043;-70
2022/05/30 07:32:13;;;;;;;1.38;0.52;;;;;;;11.96;100.00;101254.19;10239071;28;20046;-69
2022/05/30 07:37:13;;;;;;;4.07;1.05;;;;;;;11.76;100.00;101251.91;10269403;28;20039;-70
2022/05/30 07:42:14;;;;;;;3.25;0.50;;;;;;;11.58;100.00;101264.91;10275248;28;20039;-69
2022/05/30 07:47:17;;;;;;;4.28;0.50;;;;;;;11.66;100.00;101260.91;10278376;28;20054;-65
2022/05/30 07:52:17;;;;;;;3.83;0.70;;;;;;;11.57;100.00;101254.13;10277436;28;20530;-69
2022/05/30 07:57:17;;;;;;;1.15;0.40;;;;;;;11.29;100.00;101250.38;10276167;28;20035;-70
2022/05/30 08:02:18;;;;;;;1.27;0.40;;;;;;;11.39;100.00;101255.19;10278366;28;20471;-69
2022/05/30 08:07:18;;;;;;;0.65;0.40;;;;;;;11.59;100.00;101241.75;10277315;28;20038;-69
2022/05/30 08:12:19;;;;;;;3.00;0.38;;;;;;;11.84;100.00;101255.09;10276349;28;20042;-69
2022/05/30 08:17:20;;;;;;;3.63;1.10;;;;;;;12.15;100.00;101247.25;10261324;28;20039;-69
2022/05/30 08:22:22;;;;;;;1.70;0.32;;;;;;;12.45;100.00;101251.53;10256780;28;20027;-69
2022/05/30 08:27:22;;;;;;;1.00;0.30;;;;;;;12.11;100.00;101241.44;10259269;28;20039;-68
2022/05/30 08:32:23;;;;;;;1.38;0.50;;;;;;;12.17;100.00;101255.28;10281434;28;20097;-68
2022/05/30 08:37:25;;;;;;;1.95;0.30;;;;;;;12.22;100.00;101247.09;10295012;28;20507;-69
2022/05/30 08:42:29;;;;;;;2.13;0.70;;;;;;;12.65;100.00;101251.75;10268547;28;20054;-68
2022/05/30 08:47:46;;;;;;;0.85;0.20;;;;;;;13.30;100.00;101240.81;10261039;28;20047;-68
2022/05/30 08:53:08;;;;;;;0.25;0.17;;;;;;;13.88;96.65;101244.53;10274459;28;20062;-68
2022/05/30 08:58:30;;;;;;;0.70;0.30;;;;;;;13.77;97.46;101239.22;10275571;28;20035;-68
2022/05/30 09:03:41;;;;;;;1.10;0.30;;;;;;;13.58;96.02;101238.81;10292474;28;20042;-68
2022/05/30 09:08:45;;;;;;;2.22;0.57;;;;;;;13.98;100.00;101251.25;10277491;28;20050;-68
2022/05/30 09:13:47;;;;;;;2.53;0.65;;;;;;;14.20;94.29;101246.41;10294100;28;20039;-68
2022/05/30 09:18:50;;;;;;;2.67;0.60;;;;;;;14.01;94.83;101245.16;10299735;28;20046;-68
2022/05/30 09:23:50;;;;;;;2.80;1.02;;;;;;;13.91;99.85;101260.63;10317457;28;20110;-68
2022/05/30 09:28:51;;;;;;;2.42;0.95;;;;;;;14.35;97.24;101255.88;10295036;28;20039;-69
2022/05/30 09:33:54;;;;;;;3.35;0.95;;;;;;;14.47;96.15;101253.69;10294685;28;20074;-68
2022/05/30 09:38:58;;;;;;;3.40;1.10;;;;;;;14.55;92.99;101247.63;10261048;28;20054;-68
2022/05/30 09:44:03;;;;;;;0.40;0.20;;;;;;;14.75;92.91;101257.16;10276407;28;20066;-68
2022/05/30 09:49:10;;;;;;;1.27;0.30;;;;;;;14.93;86.91;101240.00;10277654;28;20066;-68
2022/05/30 09:54:13;;;;;;;1.35;0.20;;;;;;;14.38;84.80;101239.53;10277553;28;20061;-68
2022/05/30 09:59:34;;;;;;;1.13;0.30;;;;;;;13.95;89.08;101257.31;10261279;28;20721;-72
2022/05/30 10:04:37;;;;;;;1.95;0.40;;;;;;;13.24;100.00;101305.44;10292833;28;20038;-69
2022/05/30 10:09:51;;;;;;;1.52;0.30;;;;;;;12.93;100.00;101313.41;10293375;28;20042;-69
2022/05/30 10:14:51;;;;;;;3.42;0.43;;;;;;;12.96;100.00;101307.38;10294172;28;20449;-70
2022/05/30 10:19:52;;;;;;;1.17;0.50;;;;;;;13.15;100.00;101290.38;10294190;28;20038;-69
2022/05/30 10:31:13;;;;;;;4.13;0.85;;;;;;;14.07;100.00;101293.94;10279848;28;20039;-69
2022/05/30 10:36:52;;;;;;;0.98;0.25;;;;;;;14.50;100.00;101286.41;10234070;28;20082;-69
2022/05/30 10:42:01;;;;;;;1.63;0.30;;;;;;;14.76;100.00;101272.66;10225738;28;20045;-68
2022/05/30 10:47:01;;;;;;;1.13;0.22;;;;;;;14.65;99.78;101282.88;10275402;28;20050;-69
2022/05/30 10:52:17;;;;;;;0.50;0.30;;;;;;;14.04;100.00;101288.94;10291852;28;20062;-69
2022/05/30 10:57:24;;;;;;;1.75;0.50;;;;;;;13.86;100.00;101296.56;10292669;28;20050;-68
2022/05/30 11:02:39;;;;;;;0.73;0.40;;;;;;;14.21;100.00;101297.88;10260653;28;20042;-67
2022/05/30 11:07:46;;;;;;;1.67;0.50;;;;;;;14.44;100.00;101296.63;10259915;28;20429;-68
2022/05/30 11:12:51;;;;;;;1.98;0.30;;;;;;;14.88;93.83;101281.56;10245089;28;20042;-67
2022/05/30 11:17:57;;;;;;;1.90;0.28;;;;;;;15.20;95.24;101299.94;10259465;28;20055;-67
2022/05/30 11:22:57;;;;;;;1.40;0.40;;;;;;;15.23;93.73;101291.06;10277712;28;20454;-67
2022/05/30 11:28:15;;;;;;;4.55;0.40;;;;;;;15.39;95.09;101303.00;10262318;28;20055;-67
2022/05/30 11:33:28;;;;;;;1.55;0.30;;;;;;;15.18;95.32;101313.25;10260074;28;20039;-67
2022/05/30 11:38:41;;;;;;;1.33;0.32;;;;;;;14.73;100.00;101323.94;10273885;28;20043;-67
2022/05/30 11:43:42;;;;;;;3.10;0.50;;;;;;;14.03;95.10;101320.47;10255309;28;20044;-66
2022/05/30 11:48:56;;;;;;;0.55;0.30;;;;;;;13.60;97.46;101314.91;10275520;28;20050;-66
2022/05/30 11:54:35;;;;;;;1.52;0.20;;;;;;;12.86;97.38;101319.13;10293653;28;20088;-67
2022/05/30 11:59:58;;;;;;;0.70;0.68;;;;;;;12.51;99.48;101322.28;10280178;28;20054;-68
2022/05/30 12:04:58;;;;;;;0.50;0.30;;;;;;;12.38;100.00;101345.59;10258556;29;20043;-67
2022/05/30 12:10:09;;;;;;;0.40;0.30;;;;;;;12.24;100.00;101344.28;10258810;29;20111;-67
2022/05/30 12:15:39;;;;;;;0.82;0.25;;;;;;;12.21;100.00;101351.13;10242276;29;20039;-66
2022/05/30 12:27:21;;;;;;;1.30;0.40;;;;;;;12.07;100.00;101358.09;10256524;28;20055;-67
2022/05/30 12:32:22;;;;;;;2.58;0.50;;;;;;;11.99;100.00;101364.03;10167856;28;20050;-67
2022/05/30 12:37:47;;;;;;;1.15;0.52;;;;;;;12.09;100.00;101370.56;10274410;28;20047;-68
2022/05/30 12:42:56;;;;;;;2.35;0.20;;;;;;;12.16;100.00;101358.53;10264757;28;20063;-67
2022/05/30 12:47:56;;;;;;;0.70;0.20;;;;;;;12.35;100.00;101351.63;10239822;29;20174;-68
2022/05/30 12:52:59;;;;;;;1.40;0.40;;;;;;;12.28;100.00;101362.84;10224515;29;20068;-67
2022/05/30 12:58:00;;;;;;;0.10;0.10;;;;;;;12.18;100.00;101361.88;10200575;29;20042;-67
2022/05/30 13:03:20;;;;;;;0.38;0.20;;;;;;;12.06;100.00;101371.06;10183232;29;20103;-67
2022/05/30 13:08:55;;;;;;;1.25;0.40;;;;;;;11.94;100.00;101383.28;10201291;29;20047;-68
2022/05/30 13:13:56;;;;;;;0.25;0.10;;;;;;;12.17;100.00;101383.09;10231938;29;20102;-69
2022/05/30 13:18:56;;;;;;;0.50;0.30;;;;;;;12.53;100.00;101386.41;10218441;29;20054;-67
2022/05/30 13:23:57;;;;;;;0.17;0.10;;;;;;;12.80;100.00;101374.59;10217721;29;20438;-67
2022/05/30 13:28:59;;;;;;;0.85;0.40;;;;;;;13.11;100.00;101375.78;10217217;28;20143;-69
2022/05/30 13:34:00;;;;;;;1.70;0.20;;;;;;;13.50;100.00;101382.03;10233607;28;20043;-68
2022/05/30 13:39:00;;;;;;;1.13;0.20;;;;;;;13.91;100.00;101374.13;10227252;28;20039;-68
2022/05/30 13:44:01;;;;;;;0.95;0.38;;;;;;;14.12;100.00;101365.97;10221448;28;20479;-67
2022/05/30 13:49:01;;;;;;;0.30;0.17;;;;;;;14.52;100.00;101375.63;10293931;28;20098;-67
2022/05/30 13:54:02;;;;;;;1.08;0.35;;;;;;;14.86;99.16;101366.94;10294049;28;20039;-66
2022/05/30 13:59:30;;;;;;;1.85;1.55;;;;;;;14.99;95.38;101366.44;10261080;28;20041;-67
2022/05/30 14:04:45;;;;;;;0.77;0.77;;;;;;;14.99;91.38;101366.44;10265425;28;20061;-67
2022/05/30 14:09:47;;;;;;;1.55;0.30;;;;;;;15.21;91.25;101362.63;10276126;28;20053;-68
2022/05/30 14:14:48;;;;;;;2.53;0.40;;;;;;;15.31;91.67;101351.53;10275875;28;20086;-66
2022/05/30 14:19:48;;;;;;;1.08;0.40;;;;;;;15.38;90.67;101367.91;10283958;28;20554;-67
2022/05/30 14:24:59;;;;;;;1.85;0.57;;;;;;;15.46;92.11;101364.59;10278479;28;20065;-67
2022/05/30 14:30:06;;;;;;;0.55;0.38;;;;;;;15.44;89.11;101351.03;10270672;28;20062;-67
2022/05/30 14:35:12;;;;;;;0.77;0.47;;;;;;;15.58;95.64;101372.66;10280473;28;20054;-67
2022/05/30 14:40:43;;;;;;;1.90;0.40;;;;;;;16.21;89.70;101364.91;10275769;28;20042;-68
2022/05/30 14:45:43;;;;;;;1.48;0.32;;;;;;;16.47;87.50;101357.34;10277115;28;20073;-68
2022/05/30 14:50:49;;;;;;;1.23;0.40;;;;;;;16.60;83.91;101347.59;10281173;28;20041;-67
2022/05/30 14:55:51;;;;;;;0.30;0.20;;;;;;;16.42;79.49;101343.47;10273904;28;20419;-66
2022/05/30 15:00:56;;;;;;;1.65;0.30;;;;;;;15.51;85.09;101379.31;10270556;28;20098;-67
2022/05/30 15:05:57;;;;;;;0.43;0.20;;;;;;;14.71;87.55;101387.94;10288964;28;20055;-67
2022/05/30 15:11:14;;;;;;;0.43;0.25;;;;;;;14.44;91.00;101392.75;10305837;28;20046;-67
2022/05/30 15:16:15;;;;;;;3.22;0.32;;;;;;;14.12;94.80;101408.31;10305527;28;20057;-67
2022/05/30 15:21:20;;;;;;;0.40;0.20;;;;;;;13.81;92.83;101400.84;10282994;28;20054;-68
2022/05/30 15:26:22;;;;;;;0.70;0.30;;;;;;;13.44;97.29;101413.50;10283993;28;20035;-67
2022/05/30 15:31:26;;;;;;;1.40;0.43;;;;;;;13.36;100.00;101402.91;10248771;28;20043;-67
2022/05/30 15:36:27;;;;;;;3.20;0.40;;;;;;;13.47;98.97;101401.91;10267703;28;20496;-67
2022/05/30 15:41:29;;;;;;;6.10;0.95;;;;;;;13.58;100.00;101407.56;10260393;28;20071;-67
2022/05/30 15:46:30;;;;;;;1.15;0.28;;;;;;;13.72;100.00;101409.66;10245499;28;20422;-68
2022/05/30 15:51:31;;;;;;;3.50;0.20;;;;;;;13.82;100.00;101408.91;10264735;28;20054;-68
2022/05/30 16:01:50;;;;;;;1.38;0.30;;;;;;;13.60;97.71;101394.28;10313709;28;20073;-68
2022/05/30 16:06:52;;;;;;;1.35;0.30;;;;;;;13.57;98.17;101389.31;10280932;28;20394;-67
2022/05/30 16:11:53;;;;;;;3.10;0.40;;;;;;;13.57;98.83;101389.31;10264910;28;20047;-68
2022/05/30 16:16:53;;;;;;;2.10;0.20;;;;;;;13.56;100.00;101390.38;10263307;28;20027;-67
2022/05/30 16:21:55;;;;;;;1.20;0.25;;;;;;;13.76;97.72;101390.56;10297716;28;20031;-68
2022/05/30 16:26:56;;;;;;;1.38;0.20;;;;;;;13.79;100.00;101387.28;10289041;28;20079;-67
2022/05/30 16:31:56;;;;;;;0.70;0.20;;;;;;;13.56;100.00;101388.47;10264134;28;20039;-67
2022/05/30 16:36:56;;;;;;;0.25;0.22;;;;;;;13.51;100.00;101392.00;10256805;29;20039;-67
2022/05/30 16:41:58;;;;;;;3.35;0.30;;;;;;;13.42;100.00;101388.03;10223809;29;20036;-68
2022/05/30 16:46:58;;;;;;;2.05;0.50;;;;;;;13.31;100.00;101386.25;10270304;28;20054;-68
2022/05/30 16:51:59;;;;;;;1.23;0.40;;;;;;;13.23;100.00;101398.59;10301039;28;20042;-68
2022/05/30 16:57:01;;;;;;;1.17;0.30;;;;;;;13.00;100.00;101391.44;10333903;28;20038;-68
2022/05/30 17:02:02;;;;;;;1.85;0.40;;;;;;;12.99;100.00;101398.03;10285551;28;20043;-68
2022/05/30 17:07:05;;;;;;;2.70;0.60;;;;;;;12.92;100.00;101394.66;10253544;29;20043;-68
2022/05/30 17:12:06;;;;;;;0.63;0.32;;;;;;;12.82;100.00;101392.59;10255349;28;20130;-67
2022/05/30 17:17:10;;;;;;;0.63;0.32;;;;;;;12.80;100.00;101396.69;10238175;29;20039;-67
2022/05/30 17:22:11;;;;;;;2.08;0.40;;;;;;;12.80;100.00;101394.75;10257262;28;20047;-67
2022/05/30 17:32:30;;;;;;;2.63;0.40;;;;;;;13.08;100.00;101404.78;10319926;28;20069;-68
2022/05/30 17:37:31;;;;;;;3.53;0.50;;;;;;;13.09;100.00;101394.56;10332107;28;20104;-68
2022/05/30 17:42:31;;;;;;;2.70;0.40;;;;;;;13.03;100.00;101390.91;10334792;28;20042;-68
2022/05/30 17:47:37;;;;;;;1.90;0.40;;;;;;;13.03;100.00;101393.66;10334255;28;20103;-68
2022/05/30 17:52:44;;;;;;;1.30;0.30;;;;;;;12.90;100.00;101383.00;10301655;28;20125;-68
2022/05/30 17:57:44;;;;;;;;;;;;;;;12.86;100.00;101399.25;10263703;28;20046;-67
2022/05/30 18:02:45;;;;;;;0.82;0.40;;;;;;;12.78;100.00;101399.72;10251576;29;20006;-69
2022/05/30 18:07:59;;;;;;;0.98;0.43;;;;;;;12.68;100.00;101405.09;10253981;29;20099;-69
2022/05/30 18:13:02;;;;;;;1.30;0.40;;;;;;;12.65;100.00;101408.34;10221048;29;20039;-69
2022/05/30 18:23:52;;;;;;;1.15;0.50;;;;;;;12.58;100.00;101414.06;10238792;28;20039;-68
2022/05/30 18:28:52;;;;;;;0.73;0.52;;;;;;;12.50;100.00;101411.75;10221358;29;20060;-67
2022/05/30 18:33:53;;;;;;;1.10;0.40;;;;;;;12.44;100.00;101408.09;10219861;29;20047;-68
2022/05/30 18:39:18;;;;;;;2.08;0.45;;;;;;;12.34;100.00;101416.22;10218997;29;20050;-68
2022/05/30 18:44:23;;;;;;;4.40;0.82;;;;;;;12.22;100.00;101435.63;10251613;29;20063;-65
2022/05/30 18:49:41;;;;;;;2.05;0.55;;;;;;;12.08;100.00;101437.88;10252372;29;20036;-67
2022/05/30 18:54:42;;;;;;;3.20;0.70;;;;;;;11.95;100.00;101434.63;10252168;29;20090;-68
2022/05/30 18:59:54;;;;;;;0.98;0.50;;;;;;;11.79;100.00;101447.28;10252234;29;20045;-68
2022/05/30 19:04:55;;;;;;;2.22;0.70;;;;;;;11.63;100.00;101454.44;10218504;29;20039;-68
2022/05/30 19:09:55;;;;;;;2.00;0.70;;;;;;;11.48;100.00;101464.09;10251812;29;20070;-68
2022/05/30 19:20:36;;;;;;;2.00;0.70;;;;;;;11.23;100.00;101458.91;10289886;28;20098;-68
2022/05/30 19:25:38;;;;;;;2.25;0.75;;;;;;;11.07;100.00;101462.44;10291044;28;20400;-67
2022/05/30 19:30:39;;;;;;;2.75;0.90;;;;;;;10.95;100.00;101456.94;10258481;28;20038;-68
2022/05/30 19:35:39;;;;;;;2.72;0.95;;;;;;;10.79;100.00;101468.69;10292148;28;20041;-68
2022/05/30 19:40:59;;;;;;;2.50;1.30;;;;;;;10.58;100.00;101473.75;10298386;28;20039;-68
2022/05/30 19:46:00;;;;;;;1.52;1.08;;;;;;;10.39;100.00;101473.03;10265926;28;20065;-69
2022/05/30 19:51:06;;;;;;;1.85;1.10;;;;;;;10.21;100.00;101482.22;10298937;28;20039;-69
2022/05/30 19:56:06;;;;;;;2.05;1.05;;;;;;;10.05;100.00;101482.91;10281209;28;20041;-68
2022/05/30 20:01:07;;;;;;;6.13;1.40;;;;;;;9.87;100.00;101481.03;10281261;28;20039;-69
2022/05/30 20:06:07;;;;;;;1.88;1.23;;;;;;;9.70;100.00;101486.38;10298569;28;20038;-69
2022/05/30 20:11:08;;;;;;;4.05;2.17;;;;;;;9.54;100.00;101485.09;10309760;28;20035;-68
2022/05/30 20:16:08;;;;;;;5.53;3.47;;;;;;;9.37;100.00;101487.66;10314852;28;20046;-67
2022/05/30 20:21:10;;;;;;;6.03;3.80;;;;;;;9.23;100.00;101503.47;10337813;28;20042;-68
2022/05/30 20:26:10;;;;;;;4.30;3.83;;;;;;;9.06;100.00;101489.53;10324950;28;20419;-68
2022/05/30 20:31:11;;;;;;;5.45;3.70;;;;;;;9.01;100.00;101500.38;10299881;28;20133;-68
2022/05/30 20:36:11;;;;;;;4.55;3.03;;;;;;;8.93;100.00;101499.81;10335981;28;20046;-68
2022/05/30 20:46:31;;;;;;;3.05;2.65;;;;;;;8.78;100.00;101511.16;10335814;28;20057;-68
2022/05/30 20:51:31;;;;;;;3.45;2.40;;;;;;;8.67;100.00;101508.09;10318809;28;20053;-69
2022/05/30 20:56:32;;;;;;;3.97;2.78;;;;;;;8.56;100.00;101508.84;10336502;28;20418;-67
2022/05/30 21:01:32;;;;;;;8.00;2.88;;;;;;;8.49;100.00;101519.03;10336505;28;20043;-68
2022/05/30 21:06:33;;;;;;;5.82;2.85;;;;;;;8.40;100.00;101512.97;10317550;28;20054;-67
2022/05/30 21:11:33;;;;;;;4.90;2.80;;;;;;;8.33;100.00;101514.06;10294281;28;20039;-67
2022/05/30 21:16:40;;;;;;;3.50;2.90;;;;;;;8.23;100.00;101509.94;10293420;28;20359;-67
2022/05/30 21:21:45;;;;;;;5.40;3.83;;;;;;;8.16;100.00;101509.13;10276883;28;20058;-67
2022/05/30 21:26:46;;;;;;;3.03;2.67;;;;;;;8.09;100.00;101511.94;10276360;28;20046;-67
2022/05/30 21:31:51;;;;;;;5.13;2.90;;;;;;;8.05;100.00;101510.69;10294614;28;20070;-69
2022/05/30 21:36:58;;;;;;;5.13;2.85;;;;;;;8.01;100.00;101516.84;10275022;28;20034;-67
2022/05/30 21:41:59;;;;;;;5.43;2.97;;;;;;;8.01;100.00;101516.84;10295874;28;20051;-67
2022/05/30 21:46:59;;;;;;;3.72;2.80;;;;;;;7.99;100.00;101511.59;10292293;28;20042;-68
2022/05/30 21:52:00;;;;;;;4.93;3.03;;;;;;;7.94;100.00;101516.03;10297215;28;20417;-67
2022/05/30 22:02:20;;;;;;;7.22;3.47;;;;;;;7.84;100.00;101509.16;10317432;28;20057;-67
2022/05/30 22:07:20;;;;;;;5.00;3.95;;;;;;;7.77;100.00;101516.59;10314181;28;20038;-67
2022/05/30 22:12:21;;;;;;;7.22;4.20;;;;;;;7.68;100.00;101507.75;10331963;28;20057;-67
2022/05/30 22:17:21;;;;;;;5.78;3.92;;;;;;;7.62;100.00;101507.81;10332116;28;20038;-67
2022/05/30 22:22:22;;;;;;;8.40;4.07;;;;;;;7.58;100.00;101517.53;10315186;28;20097;-67
2022/05/30 22:27:22;;;;;;;6.63;4.55;;;;;;;7.50;100.00;101515.88;10332348;28;20041;-67
2022/05/30 22:32:22;;;;;;;5.40;3.85;;;;;;;7.17;100.00;101474.94;10271786;28;20427;-67
2022/05/30 22:37:23;;;;;;;7.68;5.13;;;;;;;7.35;100.00;101513.41;10252621;29;20129;-67
2022/05/30 22:42:23;;;;;;;8.63;4.80;;;;;;;7.24;100.00;101512.22;10253606;29;20055;-68
2022/05/30 22:47:24;;;;;;;9.57;4.82;;;;;;;7.16;100.00;101515.19;10252015;29;20488;-68
2022/05/30 22:52:25;;;;;;;11.20;5.88;;;;;;;7.10;100.00;101512.47;10252486;29;20058;-67
2022/05/30 22:57:27;;;;;;;5.72;4.78;;;;;;;7.02;100.00;101508.06;10236300;29;20047;-68
2022/05/30 23:02:29;;;;;;;8.38;4.95;;;;;;;6.94;100.00;101520.06;10253068;29;20605;-67
2022/05/30 23:07:30;;;;;;;7.38;4.72;;;;;;;6.87;100.00;101513.78;10252268;29;20054;-67
2022/05/30 23:12:30;;;;;;;8.70;4.80;;;;;;;6.80;100.00;101521.16;10256278;28;20043;-68
2022/05/30 23:17:31;;;;;;;6.55;5.80;;;;;;;6.74;100.00;101513.81;10242569;29;20028;-68
2022/05/30 23:22:31;;;;;;;7.68;5.90;;;;;;;6.75;100.00;101524.53;10243245;29;20040;-67
2022/05/30 23:27:32;;;;;;;7.30;5.60;;;;;;;6.57;100.00;101497.84;10226932;29;20036;-67
2022/05/30 23:32:32;;;;;;;8.57;6.32;;;;;;;6.64;100.00;101509.63;10303841;28;20065;-67
2022/05/30 23:37:32;;;;;;;9.02;6.03;;;;;;;6.59;100.00;101512.13;10337997;28;20101;-68
2022/05/30 23:47:53;;;;;;;9.48;7.45;;;;;;;6.49;100.00;101498.09;10338048;28;20132;-67
2022/05/30 23:52:53;;;;;;;10.52;7.07;;;;;;;6.43;100.00;101505.22;10338929;28;20100;-67
2022/05/30 23:57:54;;;;;;;14.32;10.35;;;;;;;6.40;100.00;101499.34;10302431;28;20098;-67
